Time;durP1;ratioP1;P1;durP2;ratioP2;P2;SDS_P1;SDS_P2;PMS_P1;PMS_P2;Temp;Humidity;BMP_temperature;BMP_pressure;BME280_temperature;BME280_humidity;BME280_pressure;Samples;Min_cycle;Max_cycle;Signal;HPM_P1;HPM_P2
2022/10/29 00:04:15;;;;;;;4.33;1.50;;;;;;;19.22;65.39;97391.47;10563222;28;20530;-30
2022/10/29 00:09:16;;;;;;;7.97;2.03;;;;;;;19.37;68.19;97404.28;10562977;28;20075;-30
2022/10/29 00:14:16;;;;;;;8.40;2.45;;;;;;;19.43;68.29;97404.31;10563942;28;20016;-30
2022/10/29 00:19:17;;;;;;;6.67;2.27;;;;;;;19.41;66.15;97395.84;10569725;28;20584;-30
2022/10/29 00:24:17;;;;;;;4.17;1.27;;;;;;;19.33;65.75;97387.34;10565677;28;20034;-30
2022/10/29 00:29:17;;;;;;;5.40;2.30;;;;;;;19.26;65.50;97380.50;10561647;28;20031;-32
2022/10/29 00:34:18;;;;;;;3.22;1.15;;;;;;;19.24;65.42;97380.47;10564722;28;20035;-30
2022/10/29 00:39:18;;;;;;;3.60;1.33;;;;;;;19.23;65.30;97385.53;10562365;28;20027;-30
2022/10/29 00:44:19;;;;;;;2.97;1.23;;;;;;;19.22;65.29;97383.84;10559808;28;20106;-30
2022/10/29 00:49:20;;;;;;;2.38;1.25;;;;;;;19.22;65.15;97396.53;10562436;28;20036;-30
2022/10/29 00:54:20;;;;;;;6.13;1.80;;;;;;;19.31;67.89;97396.59;10542647;28;20059;-30
2022/10/29 00:59:20;;;;;;;7.43;2.00;;;;;;;19.35;68.17;97386.47;10551056;28;20070;-30
2022/10/29 01:04:23;;;;;;;4.30;1.53;;;;;;;19.43;67.60;97399.25;10563772;28;20042;-30
2022/10/29 01:09:23;;;;;;;4.63;1.27;;;;;;;19.36;65.76;97397.50;10565527;28;20281;-30
2022/10/29 01:15:01;;;;;;;3.67;1.30;;;;;;;19.30;65.28;97392.38;10563763;28;20321;-32
2022/10/29 01:20:20;;;;;;;2.65;1.00;;;;;;;19.26;65.37;97380.50;10561325;28;20081;-30
2022/10/29 01:25:32;;;;;;;2.95;1.23;;;;;;;19.22;65.42;97381.31;10562645;28;20086;-31
2022/10/29 01:30:54;;;;;;;3.75;1.15;;;;;;;19.21;65.37;97382.16;10561403;28;20413;-30
2022/10/29 01:36:10;;;;;;;2.95;1.27;;;;;;;19.22;65.17;97389.78;10560437;28;20074;-30
2022/10/29 01:41:18;;;;;;;5.00;1.85;;;;;;;19.28;67.66;97394.06;10558562;28;20036;-30
2022/10/29 01:46:28;;;;;;;3.75;1.77;;;;;;;19.40;68.26;97378.88;10557029;28;20454;-31
2022/10/29 01:51:33;;;;;;;4.20;1.52;;;;;;;19.43;68.10;97377.22;10558094;28;20085;-30
2022/10/29 01:56:33;;;;;;;3.40;1.48;;;;;;;19.39;65.99;97367.03;10563244;28;20027;-31
2022/10/29 02:02:06;;;;;;;3.03;1.00;;;;;;;19.31;65.64;97379.69;10559511;28;20028;-30
2022/10/29 02:07:37;;;;;;;4.22;1.13;;;;;;;19.25;65.42;97369.47;10556866;28;20070;-31
2022/10/29 02:12:45;;;;;;;2.05;1.08;;;;;;;19.22;65.49;97358.44;10566597;28;20084;-31
2022/10/29 02:17:46;;;;;;;3.50;1.00;;;;;;;19.22;65.24;97363.53;10560185;28;20554;-31
2022/10/29 02:22:47;;;;;;;3.15;1.30;;;;;;;19.21;65.17;97369.44;10556658;28;20073;-30
2022/10/29 02:27:47;;;;;;;0.80;0.80;;;;;;;19.17;65.12;97342.31;10557514;28;20046;-31
2022/10/29 02:32:47;;;;;;;4.23;1.87;;;;;;;19.36;68.04;97334.03;10561344;28;20032;-31
2022/10/29 02:37:48;;;;;;;4.00;1.70;;;;;;;19.42;67.95;97329.00;10553411;28;20054;-30
2022/10/29 02:42:48;;;;;;;2.95;1.70;;;;;;;19.41;66.16;97325.59;10553775;28;20036;-31
2022/10/29 02:47:48;;;;;;;3.67;1.13;;;;;;;19.35;65.94;97334.88;10560691;28;20111;-30
2022/10/29 02:52:49;;;;;;;2.73;1.40;;;;;;;19.29;65.51;97322.97;10553232;28;20573;-30
2022/10/29 02:57:49;;;;;;;3.23;1.90;;;;;;;19.26;65.61;97319.56;10558817;28;20097;-30
2022/10/29 03:02:51;;;;;;;2.70;1.17;;;;;;;19.22;65.37;97312.75;10549476;28;20359;-30
2022/10/29 03:07:51;;;;;;;3.20;1.20;;;;;;;19.23;65.20;97314.47;10550706;28;20190;-30
2022/10/29 03:12:52;;;;;;;2.87;1.10;;;;;;;19.21;65.54;97306.00;10558860;28;20042;-30
2022/10/29 03:17:52;;;;;;;4.13;1.20;;;;;;;19.20;65.30;97309.38;10553011;28;20285;-30
2022/10/29 03:22:53;;;;;;;3.92;1.40;;;;;;;19.37;67.98;97297.63;10512460;28;1063111;-30
2022/10/29 03:27:53;;;;;;;4.57;2.10;;;;;;;19.43;68.06;97290.06;10561299;28;20048;-30
2022/10/29 03:32:53;;;;;;;3.67;1.73;;;;;;;19.38;65.87;97284.94;10552075;28;20425;-32
2022/10/29 03:37:54;;;;;;;2.50;1.15;;;;;;;19.31;65.95;97289.97;10540998;28;20506;-30
2022/10/29 03:42:54;;;;;;;3.23;1.37;;;;;;;19.28;65.32;97297.56;10554793;28;20034;-30
2022/10/29 03:47:55;;;;;;;2.60;0.83;;;;;;;19.25;65.24;97292.50;10565934;28;20044;-30
2022/10/29 03:52:56;;;;;;;1.45;0.85;;;;;;;19.21;65.29;97293.28;10564860;28;20058;-30
2022/10/29 03:57:56;;;;;;;2.10;0.83;;;;;;;19.21;65.35;97301.78;10560492;28;20055;-30
2022/10/29 04:02:57;;;;;;;2.10;0.90;;;;;;;19.22;65.11;97302.59;10558309;28;20028;-30
2022/10/29 04:07:57;;;;;;;1.90;1.33;;;;;;;19.29;67.69;97304.34;10555546;28;20036;-29
2022/10/29 04:12:57;;;;;;;3.63;1.23;;;;;;;19.40;68.01;97300.16;10561992;28;20367;-30
2022/10/29 04:17:58;;;;;;;4.53;1.38;;;;;;;19.43;67.09;97312.91;10554721;28;20032;-31
2022/10/29 04:22:58;;;;;;;1.10;0.87;;;;;;;19.36;65.71;97306.94;10561845;28;20059;-33
2022/10/29 04:27:58;;;;;;;1.77;1.00;;;;;;;19.30;65.53;97311.13;10568878;28;20039;-30
2022/10/29 04:32:59;;;;;;;1.87;0.83;;;;;;;19.25;65.44;97317.88;10572573;28;20039;-30
2022/10/29 04:38:06;;;;;;;2.38;0.95;;;;;;;19.23;65.17;97306.84;10569261;28;20285;-31
2022/10/29 04:43:07;;;;;;;2.72;0.70;;;;;;;19.21;65.36;97311.06;10564757;28;20027;-31
2022/10/29 04:48:07;;;;;;;1.67;0.90;;;;;;;19.20;65.09;97312.78;10567938;28;20036;-30
2022/10/29 04:53:08;;;;;;;1.30;0.70;;;;;;;19.17;65.13;97304.25;10570590;28;20497;-30
2022/10/29 04:58:17;;;;;;;2.13;1.10;;;;;;;19.32;68.02;97306.91;10571657;28;20031;-31
2022/10/29 05:03:17;;;;;;;3.20;1.27;;;;;;;19.41;67.87;97306.97;10566051;28;20539;-31
2022/10/29 05:08:17;;;;;;;2.73;0.80;;;;;;;19.42;65.92;97306.13;10572319;28;20034;-30
2022/10/29 05:13:18;;;;;;;1.23;0.73;;;;;;;19.33;65.83;97293.38;10564752;28;20758;-30
2022/10/29 05:18:18;;;;;;;3.23;0.93;;;;;;;19.24;65.41;97285.72;10567699;28;20551;-30
2022/10/29 05:23:19;;;;;;;2.77;1.00;;;;;;;19.23;65.33;97294.16;10567406;28;20289;-30
2022/10/29 05:28:22;;;;;;;2.90;1.00;;;;;;;19.20;65.21;97295.00;10564879;28;20036;-30
2022/10/29 05:33:23;;;;;;;1.98;1.27;;;;;;;19.18;65.22;97286.47;10567476;28;20024;-31
2022/10/29 05:38:24;;;;;;;1.27;0.82;;;;;;;19.20;65.06;97289.06;10560280;28;20154;-30
2022/10/29 05:43:24;;;;;;;1.52;1.08;;;;;;;19.18;65.18;97280.56;10565813;28;20449;-31
2022/10/29 05:48:24;;;;;;;2.15;1.20;;;;;;;19.31;67.69;97274.72;10560463;28;20028;-31
2022/10/29 05:53:25;;;;;;;3.20;1.17;;;;;;;19.43;67.85;97274.81;10560527;28;20101;-30
2022/10/29 05:58:25;;;;;;;1.13;0.90;;;;;;;19.39;65.50;97278.16;10559659;28;20048;-30
2022/10/29 06:03:26;;;;;;;1.70;1.03;;;;;;;19.30;65.29;97275.56;10566538;28;20042;-31
2022/10/29 06:08:26;;;;;;;2.97;1.93;;;;;;;19.24;65.26;97273.03;10561553;28;20068;-31
2022/10/29 06:13:27;;;;;;;2.45;1.17;;;;;;;19.23;65.21;97278.91;10559326;28;20297;-31
2022/10/29 06:18:28;;;;;;;2.30;1.33;;;;;;;19.20;65.21;97287.38;10562779;28;20028;-30
2022/10/29 06:23:28;;;;;;;1.75;1.05;;;;;;;19.21;65.09;97280.59;10561174;28;20031;-31
2022/10/29 06:28:29;;;;;;;2.30;1.00;;;;;;;19.20;65.22;97278.91;10555668;28;20546;-30
2022/10/29 06:33:29;;;;;;;2.28;1.15;;;;;;;19.20;65.22;97278.91;10559728;28;20277;-31
2022/10/29 06:38:30;;;;;;;3.93;1.60;;;;;;;19.37;67.69;97273.09;10559135;28;20045;-30
2022/10/29 06:43:30;;;;;;;3.70;1.30;;;;;;;19.44;67.30;97279.88;10561808;28;20648;-31
2022/10/29 06:48:30;;;;;;;2.63;1.00;;;;;;;19.41;65.09;97284.13;10559643;28;20644;-31
2022/10/29 06:53:31;;;;;;;1.77;0.70;;;;;;;19.31;65.25;97284.88;10555867;28;20032;-27
2022/10/29 06:58:31;;;;;;;4.33;1.10;;;;;;;19.33;66.01;97283.22;10560802;28;20353;-31
2022/10/29 07:03:32;;;;;;;4.20;1.50;;;;;;;19.25;65.61;97287.41;10564627;28;20333;-31
2022/10/29 07:08:32;;;;;;;3.53;1.63;;;;;;;19.23;64.86;97287.41;10558712;28;20637;-30
2022/10/29 07:13:33;;;;;;;2.58;1.00;;;;;;;19.20;64.80;97289.06;10559358;28;20281;-31
2022/10/29 07:18:33;;;;;;;3.63;2.00;;;;;;;19.20;65.01;97284.84;10562714;28;20031;-31
2022/10/29 07:23:34;;;;;;;2.33;1.23;;;;;;;19.19;64.70;97293.28;10551148;28;20042;-30
2022/10/29 07:28:34;;;;;;;3.88;1.45;;;;;;;19.34;62.16;97292.53;10553235;28;20285;-30
2022/10/29 07:33:34;;;;;;;10.38;2.17;;;;;;;19.36;61.84;97281.56;10558109;28;20026;-30
2022/10/29 07:38:35;;;;;;;5.50;1.93;;;;;;;19.35;62.57;97287.44;10557084;28;20858;-30
2022/10/29 07:43:35;;;;;;;7.33;1.80;;;;;;;19.19;62.93;97269.59;10548295;28;20804;-32
2022/10/29 07:48:35;;;;;;;5.67;1.50;;;;;;;19.27;63.64;97286.56;10551602;28;20632;-30
2022/10/29 07:53:36;;;;;;;7.27;1.60;;;;;;;19.29;63.89;97289.13;10538994;28;20618;-31
2022/10/29 07:58:36;;;;;;;8.07;1.87;;;;;;;19.28;64.46;97287.41;10553443;28;20034;-30
2022/10/29 08:03:37;;;;;;;9.10;2.17;;;;;;;19.25;64.43;97293.31;10555686;28;20290;-30
2022/10/29 08:08:37;;;;;;;2.23;1.23;;;;;;;19.22;64.26;97290.78;10547729;28;20119;-33
2022/10/29 08:13:37;;;;;;;7.00;1.70;;;;;;;19.22;64.29;97280.63;10556171;27;20032;-31
2022/10/29 08:18:38;;;;;;;5.33;1.70;;;;;;;19.36;62.56;97283.25;10564891;27;20020;-30
2022/10/29 08:23:38;;;;;;;8.63;2.77;;;;;;;19.42;60.56;97280.75;10553240;28;20038;-31
2022/10/29 08:28:38;;;;;;;5.83;1.83;;;;;;;19.37;62.18;97277.31;10554840;28;20028;-31
2022/10/29 08:33:39;;;;;;;9.40;2.63;;;;;;;19.34;63.31;97282.38;10566579;28;20023;-33
2022/10/29 08:38:39;;;;;;;11.23;1.87;;;;;;;19.27;63.78;97267.94;10553791;28;20107;-31
2022/10/29 08:43:57;;;;;;;7.67;2.23;;;;;;;19.25;64.10;97267.94;10556800;28;20040;-31
2022/10/29 08:49:04;;;;;;;8.00;2.30;;;;;;;19.22;64.13;97265.41;10556753;28;20524;-30
2022/10/29 08:54:10;;;;;;;2.60;1.15;;;;;;;19.23;64.18;97271.31;10559717;28;20040;-31
2022/10/29 08:59:17;;;;;;;5.32;2.10;;;;;;;19.24;64.57;97267.94;10557357;27;20054;-31
2022/10/29 09:04:24;;;;;;;8.43;1.23;;;;;;;19.23;64.29;97268.75;10553752;28;20646;-31
2022/10/29 09:09:39;;;;;;;16.40;3.50;;;;;;;19.42;62.27;97270.59;10549745;28;20028;-30
2022/10/29 09:15:12;;;;;;;9.60;2.35;;;;;;;19.45;62.84;97262.97;10544222;28;20024;-31
2022/10/29 09:20:28;;;;;;;5.20;1.70;;;;;;;19.40;64.06;97265.47;10477112;28;20785;-31
2022/10/29 09:25:32;;;;;;;7.07;1.77;;;;;;;19.34;64.19;97259.53;10547814;28;20162;-31
2022/10/29 09:31:02;;;;;;;5.55;1.73;;;;;;;19.26;64.56;97261.19;10557579;28;20035;-32
2022/10/29 09:36:12;;;;;;;4.78;1.33;;;;;;;19.31;64.50;97262.91;10539923;28;20031;-29
2022/10/29 09:41:13;;;;;;;13.38;2.85;;;;;;;19.30;64.16;97265.41;10547366;28;20398;-29
2022/10/29 09:46:25;;;;;;;4.40;1.90;;;;;;;19.25;64.33;97256.94;10557125;28;20031;-27
2022/10/29 09:51:31;;;;;;;4.60;1.20;;;;;;;19.25;64.78;97257.78;10549113;28;20028;-29
2022/10/29 09:56:31;;;;;;;15.63;3.13;;;;;;;19.24;64.71;97260.34;10549091;28;20040;-29
2022/10/29 10:01:31;;;;;;;7.78;2.25;;;;;;;19.36;64.70;97255.31;10542723;28;20180;-28
2022/10/29 10:07:00;;;;;;;8.77;2.83;;;;;;;19.43;64.53;97262.13;10550948;27;20447;-29
2022/10/29 10:12:01;;;;;;;4.60;1.90;;;;;;;19.41;64.28;97258.72;10555088;28;20363;-29
2022/10/29 10:17:01;;;;;;;11.57;2.63;;;;;;;19.36;64.46;97255.31;10569780;28;20127;-28
2022/10/29 10:22:04;;;;;;;8.43;2.28;;;;;;;19.32;64.27;97258.66;10563013;28;20366;-29
2022/10/29 10:27:24;;;;;;;5.97;1.60;;;;;;;19.28;64.37;97251.88;10565330;28;20066;-28
2022/10/29 10:32:27;;;;;;;7.07;2.03;;;;;;;19.27;64.37;97252.72;10561157;28;20088;-29
2022/10/29 10:37:30;;;;;;;5.82;1.77;;;;;;;19.26;64.32;97258.66;10559920;28;20024;-29
2022/10/29 10:42:35;;;;;;;5.50;1.58;;;;;;;19.24;64.39;97261.16;10555112;28;20032;-27
2022/10/29 10:47:42;;;;;;;3.55;1.60;;;;;;;19.20;64.40;97253.53;10556179;28;20038;-29
2022/10/29 10:52:44;;;;;;;5.03;2.03;;;;;;;19.35;66.29;97254.44;10570370;28;20536;-29
2022/10/29 10:57:52;;;;;;;7.38;2.53;;;;;;;19.44;66.09;97240.97;10557902;28;20089;-31
2022/10/29 11:03:00;;;;;;;4.65;1.65;;;;;;;19.42;64.65;97235.03;10568422;28;20399;-30
2022/10/29 11:08:11;;;;;;;4.07;1.50;;;;;;;19.35;64.69;97235.84;10559062;28;20050;-29
2022/10/29 11:13:19;;;;;;;6.57;2.17;;;;;;;19.29;64.67;97226.50;10563861;28;20458;-34
2022/10/29 11:18:29;;;;;;;6.40;1.70;;;;;;;19.26;64.47;97221.41;10552167;28;20055;-30
2022/10/29 11:24:04;;;;;;;4.43;1.70;;;;;;;19.26;64.57;97223.09;10552452;28;20464;-29
2022/10/29 11:29:13;;;;;;;3.05;1.42;;;;;;;19.23;64.54;97213.78;10557385;28;20642;-28
2022/10/29 11:34:22;;;;;;;3.03;1.52;;;;;;;19.22;64.67;97211.22;10564907;28;20405;-29
2022/10/29 11:40:00;;;;;;;3.58;1.40;;;;;;;19.22;64.45;97207.00;10565668;28;20023;-30
2022/10/29 11:45:01;;;;;;;5.10;2.08;;;;;;;19.37;66.62;97199.47;10452387;28;20466;-29
2022/10/29 11:50:35;;;;;;;6.00;1.70;;;;;;;19.46;66.53;97201.19;10570469;28;20070;-29
2022/10/29 11:55:49;;;;;;;3.85;1.40;;;;;;;19.42;65.40;97184.25;10564610;28;20035;-29
2022/10/29 12:00:57;;;;;;;3.70;1.75;;;;;;;19.35;64.89;97187.59;10553498;28;20456;-29
2022/10/29 12:06:20;;;;;;;3.50;1.55;;;;;;;19.31;64.63;97178.25;10564789;28;20032;-30
2022/10/29 12:11:31;;;;;;;3.88;1.67;;;;;;;19.27;64.78;97168.94;10567937;28;20066;-28
2022/10/29 12:17:03;;;;;;;2.63;1.30;;;;;;;19.25;64.79;97165.56;10555627;28;20032;-30
2022/10/29 12:22:39;;;;;;;4.28;1.73;;;;;;;19.23;64.75;97152.00;10553471;28;20039;-29
2022/10/29 12:28:03;;;;;;;1.98;1.35;;;;;;;19.23;64.72;97149.44;10516044;28;20039;-27
2022/10/29 12:33:14;;;;;;;3.00;1.50;;;;;;;19.19;64.76;97130.81;10566608;28;20058;-30
2022/10/29 12:38:42;;;;;;;3.65;1.60;;;;;;;19.38;67.26;97122.44;10568061;28;20034;-29
2022/10/29 12:43:43;;;;;;;4.70;2.03;;;;;;;19.42;66.33;97113.97;10562012;28;20567;-29
2022/10/29 12:48:58;;;;;;;2.55;1.67;;;;;;;19.42;65.18;97124.13;10564491;28;20393;-29
2022/10/29 12:54:23;;;;;;;3.30;1.55;;;;;;;19.29;64.89;97106.31;10568879;28;20023;-29
2022/10/29 12:59:23;;;;;;;2.75;1.30;;;;;;;19.31;65.03;97104.63;10564479;28;20036;-28
2022/10/29 13:04:24;;;;;;;2.47;1.15;;;;;;;19.27;64.77;97103.78;10564079;28;20483;-28
2022/10/29 13:09:25;;;;;;;2.40;1.03;;;;;;;19.20;64.82;97086.00;10563857;28;20036;-29
2022/10/29 13:14:29;;;;;;;1.67;0.93;;;;;;;19.24;64.88;97102.94;10562113;28;20568;-30
2022/10/29 13:19:42;;;;;;;1.90;1.40;;;;;;;19.24;64.65;97097.88;10555344;28;20032;-29
2022/10/29 13:24:43;;;;;;;3.83;1.08;;;;;;;19.22;64.71;97095.31;10549234;28;20153;-28
2022/10/29 13:29:45;;;;;;;2.73;1.37;;;;;;;19.34;67.22;97089.41;10558711;28;20142;-29
2022/10/29 13:34:54;;;;;;;3.42;1.90;;;;;;;19.46;67.46;97086.91;10564304;28;20289;-29
2022/10/29 13:40:29;;;;;;;3.05;1.33;;;;;;;19.48;65.59;97088.59;10554157;28;20070;-29
2022/10/29 13:45:32;;;;;;;2.83;1.30;;;;;;;19.37;64.82;97086.88;10559787;28;20043;-29
2022/10/29 13:50:34;;;;;;;4.15;1.20;;;;;;;19.31;64.78;97090.25;10560277;28;20110;-29
2022/10/29 13:55:35;;;;;;;2.28;1.00;;;;;;;19.24;64.72;97075.84;10561523;28;20027;-29
2022/10/29 14:00:36;;;;;;;3.97;1.38;;;;;;;19.27;64.54;97080.09;10566452;28;20077;-29
2022/10/29 14:05:50;;;;;;;1.05;0.80;;;;;;;19.26;64.49;97088.56;10561351;28;20046;-30
2022/10/29 14:10:56;;;;;;;1.85;1.30;;;;;;;19.24;64.50;97077.56;10559619;28;20546;-29
2022/10/29 14:16:06;;;;;;;1.60;0.98;;;;;;;19.30;67.18;97093.66;10561953;28;20036;-28
2022/10/29 14:21:12;;;;;;;2.42;1.50;;;;;;;19.37;67.72;97082.66;10556449;28;20047;-29
2022/10/29 14:26:15;;;;;;;2.85;1.20;;;;;;;19.48;67.73;97088.59;10565452;28;20471;-29
2022/10/29 14:31:25;;;;;;;2.20;1.17;;;;;;;19.53;67.73;97086.94;10560115;28;20081;-29
2022/10/29 14:36:43;;;;;;;1.67;1.17;;;;;;;19.51;66.09;97082.69;10555150;28;20031;-29
2022/10/29 14:41:46;;;;;;;2.03;1.20;;;;;;;19.47;67.32;97086.91;10555121;28;20318;-29
2022/10/29 14:47:04;;;;;;;3.30;1.38;;;;;;;19.45;67.52;97080.13;10566399;28;20106;-29
2022/10/29 14:52:21;;;;;;;2.25;1.42;;;;;;;19.46;67.72;97090.31;10564470;28;20026;-29
2022/10/29 14:57:25;;;;;;;2.10;1.40;;;;;;;19.42;65.87;97087.75;10564793;28;20159;-30
2022/10/29 15:02:33;;;;;;;5.63;1.48;;;;;;;19.34;65.14;97085.19;10563179;28;20032;-28
2022/10/29 15:07:35;;;;;;;1.83;1.00;;;;;;;19.24;65.19;97072.47;10557499;28;20485;-29
2022/10/29 15:12:38;;;;;;;1.45;0.90;;;;;;;19.28;64.90;97090.25;10563798;28;20030;-29
2022/10/29 15:17:48;;;;;;;2.60;1.17;;;;;;;19.40;66.68;97089.41;10557088;28;20031;-28
2022/10/29 15:22:54;;;;;;;1.38;1.10;;;;;;;19.50;67.93;97091.97;10552901;28;20469;-29
2022/10/29 15:27:55;;;;;;;2.00;0.90;;;;;;;19.51;65.53;97087.75;10555915;28;20116;-29
2022/10/29 15:33:00;;;;;;;3.15;1.48;;;;;;;19.41;64.94;97080.97;10564619;28;20118;-30
2022/10/29 15:38:01;;;;;;;2.47;0.90;;;;;;;19.34;65.07;97074.19;10555293;28;20088;-28
2022/10/29 15:43:28;;;;;;;1.77;1.10;;;;;;;19.32;64.84;97075.84;10560368;28;20046;-28
2022/10/29 15:48:36;;;;;;;1.27;0.90;;;;;;;19.27;64.70;97070.75;10560639;28;20081;-29
2022/10/29 15:53:36;;;;;;;2.88;1.17;;;;;;;19.28;64.78;97074.16;10556742;28;20035;-29
2022/10/29 15:58:37;;;;;;;2.22;1.10;;;;;;;19.20;64.50;97066.53;10559652;28;20401;-30
2022/10/29 16:03:38;;;;;;;1.30;1.00;;;;;;;19.27;64.61;97080.91;10560360;28;20104;-29
2022/10/29 16:08:39;;;;;;;1.15;0.80;;;;;;;19.25;64.43;97075.00;10557645;28;20296;-29
2022/10/29 16:13:40;;;;;;;1.88;1.52;;;;;;;19.44;67.74;97078.44;10560149;28;20114;-28
2022/10/29 16:18:40;;;;;;;1.83;1.13;;;;;;;19.51;67.59;97078.44;10561465;28;20038;-29
2022/10/29 16:23:41;;;;;;;1.57;1.10;;;;;;;19.47;64.90;97075.91;10561524;28;20043;-30
2022/10/29 16:28:42;;;;;;;0.95;0.77;;;;;;;19.36;64.71;97072.50;10555542;28;20036;-29
2022/10/29 16:33:42;;;;;;;1.20;0.70;;;;;;;19.32;64.73;97079.25;10569292;28;20474;-29
2022/10/29 16:38:43;;;;;;;3.50;1.30;;;;;;;19.33;64.81;97075.03;10566680;28;20097;-29
2022/10/29 16:43:44;;;;;;;2.05;0.98;;;;;;;19.31;64.73;97076.69;10570087;28;20042;-29
2022/10/29 16:48:45;;;;;;;2.65;1.27;;;;;;;19.31;64.53;97079.25;10568025;28;20027;-29
2022/10/29 16:53:45;;;;;;;2.58;1.33;;;;;;;19.29;64.14;97084.34;10567968;28;20031;-29
2022/10/29 16:58:46;;;;;;;1.50;0.90;;;;;;;19.28;64.52;97085.19;10567998;28;20497;-28
2022/10/29 17:03:50;;;;;;;2.53;1.20;;;;;;;19.23;64.99;97074.16;10572659;28;20036;-28
2022/10/29 17:08:51;;;;;;;1.92;0.82;;;;;;;19.47;67.78;97086.91;10562403;28;20122;-29
2022/10/29 17:13:52;;;;;;;1.17;0.83;;;;;;;19.51;66.39;97078.44;10564337;28;20482;-28
2022/10/29 17:18:52;;;;;;;2.13;0.82;;;;;;;19.44;64.86;97081.81;10561504;28;20063;-28
2022/10/29 17:23:53;;;;;;;1.03;0.80;;;;;;;19.35;64.61;97076.72;10560437;28;20044;-29
2022/10/29 17:28:53;;;;;;;1.57;1.13;;;;;;;19.33;64.57;97087.72;10557542;28;20043;-29
2022/10/29 17:33:53;;;;;;;1.77;1.17;;;;;;;19.33;64.62;97087.72;10566640;28;20036;-29
2022/10/29 17:38:54;;;;;;;2.60;1.00;;;;;;;19.32;64.47;97086.00;10557579;28;20050;-29
2022/10/29 17:43:54;;;;;;;1.17;0.60;;;;;;;19.30;64.31;97087.72;10565546;28;20508;-29
2022/10/29 17:48:55;;;;;;;1.40;0.70;;;;;;;19.30;64.29;97092.78;10564533;28;20037;-29
2022/10/29 17:53:56;;;;;;;1.65;1.25;;;;;;;19.26;64.17;97097.00;10559506;28;20112;-29
2022/10/29 17:58:56;;;;;;;0.88;0.77;;;;;;;19.37;66.68;97089.41;10563217;28;20501;-29
2022/10/29 18:04:01;;;;;;;1.90;1.20;;;;;;;19.49;67.58;97102.16;10561951;28;20039;-32
2022/10/29 18:09:02;;;;;;;0.70;0.70;;;;;;;19.50;65.45;97096.25;10563536;28;20686;-28
2022/10/29 18:14:02;;;;;;;1.20;0.70;;;;;;;19.41;64.57;97096.22;10557565;28;20076;-29
2022/10/29 18:19:03;;;;;;;1.20;0.80;;;;;;;19.34;64.50;97100.41;10559449;28;20031;-29
2022/10/29 18:24:04;;;;;;;1.45;0.77;;;;;;;19.33;64.48;97100.44;10563629;28;20031;-29
2022/10/29 18:29:07;;;;;;;0.73;0.73;;;;;;;19.30;64.38;97087.72;10556635;28;20757;-29
2022/10/29 18:34:08;;;;;;;1.92;1.05;;;;;;;19.29;64.39;97091.94;10558412;28;20027;-28
2022/10/29 18:39:09;;;;;;;2.15;1.10;;;;;;;19.31;64.18;97094.47;10556337;28;20051;-29
2022/10/29 18:44:09;;;;;;;1.55;0.80;;;;;;;19.28;64.25;97097.88;10556908;28;20111;-29
2022/10/29 18:49:11;;;;;;;1.00;0.80;;;;;;;19.30;64.23;97101.25;10559225;28;20031;-29
2022/10/29 18:54:13;;;;;;;1.52;1.15;;;;;;;19.42;67.26;97095.38;10568263;28;20378;-29
2022/10/29 18:59:13;;;;;;;1.23;0.77;;;;;;;19.48;67.19;97092.81;10555963;28;20028;-29
2022/10/29 19:04:15;;;;;;;1.00;0.90;;;;;;;19.50;65.33;97091.16;10559207;28;20027;-28
2022/10/29 19:09:15;;;;;;;1.08;0.70;;;;;;;19.39;63.71;97097.88;10557423;28;20655;-30
2022/10/29 19:14:16;;;;;;;1.03;0.70;;;;;;;19.34;64.49;97102.13;10555607;28;20032;-29
2022/10/29 19:19:16;;;;;;;1.55;0.60;;;;;;;19.33;64.50;97097.88;10557072;28;20068;-29
2022/10/29 19:24:17;;;;;;;1.30;1.20;;;;;;;19.33;64.23;97100.44;10563527;28;20023;-29
2022/10/29 19:29:17;;;;;;;1.15;0.90;;;;;;;19.32;64.49;97103.78;10554786;28;20055;-28
2022/10/29 19:34:17;;;;;;;1.10;0.93;;;;;;;19.31;64.30;97107.16;10557438;28;20032;-29
2022/10/29 19:39:18;;;;;;;1.00;0.88;;;;;;;19.32;64.42;97113.94;10558117;28;20033;-28
2022/10/29 19:44:18;;;;;;;1.03;0.90;;;;;;;19.31;64.21;97110.56;10560613;28;20036;-29
2022/10/29 19:49:19;;;;;;;2.33;0.83;;;;;;;19.39;67.06;97113.13;10557654;28;20042;-28
2022/10/29 19:54:20;;;;;;;1.85;1.50;;;;;;;19.53;67.82;97119.09;10560192;28;20706;-29
2022/10/29 19:59:20;;;;;;;1.43;0.80;;;;;;;19.50;65.02;97112.31;10564329;28;20043;-28
2022/10/29 20:04:20;;;;;;;0.50;0.50;;;;;;;19.38;64.50;97109.75;10565192;28;20303;-29
2022/10/29 20:09:21;;;;;;;0.73;0.60;;;;;;;19.34;64.32;97114.81;10566748;28;20089;-29
2022/10/29 20:14:21;;;;;;;1.93;0.80;;;;;;;19.33;64.54;97103.78;10565671;28;20032;-29
2022/10/29 20:19:21;;;;;;;1.60;0.80;;;;;;;19.32;64.43;97119.00;10565970;28;20059;-29
2022/10/29 20:24:22;;;;;;;1.37;0.87;;;;;;;19.32;64.21;97111.41;10570500;28;20192;-29
2022/10/29 20:29:22;;;;;;;2.10;0.80;;;;;;;19.31;64.25;97117.31;10562670;28;20031;-29
2022/10/29 20:34:23;;;;;;;0.80;0.70;;;;;;;19.30;64.06;97118.16;10560705;28;20027;-29
2022/10/29 20:39:23;;;;;;;0.60;0.53;;;;;;;19.30;64.16;97120.72;10561214;28;20800;-28
2022/10/29 20:44:23;;;;;;;0.73;0.73;;;;;;;19.42;67.38;97120.75;10565976;28;20031;-29
2022/10/29 20:49:24;;;;;;;1.50;0.75;;;;;;;19.51;67.21;97126.69;10563330;28;20289;-30
2022/10/29 20:54:24;;;;;;;0.80;0.77;;;;;;;19.52;65.01;97130.09;10568132;28;20043;-28
2022/10/29 20:59:25;;;;;;;0.90;0.77;;;;;;;19.37;64.29;97140.19;10555406;28;20035;-29
2022/10/29 21:04:25;;;;;;;1.63;0.97;;;;;;;19.33;64.18;97153.75;10563041;28;20400;-28
2022/10/29 21:09:25;;;;;;;1.70;0.80;;;;;;;19.33;64.49;97163.91;10563207;28;20030;-29
2022/10/29 21:14:27;;;;;;;1.43;0.50;;;;;;;19.33;64.29;97163.91;10562130;28;20282;-29
2022/10/29 21:19:27;;;;;;;0.95;0.85;;;;;;;19.24;64.18;97161.34;10563477;28;20343;-30
2022/10/29 21:24:27;;;;;;;0.68;0.50;;;;;;;19.31;64.19;97165.56;10569291;28;20091;-29
2022/10/29 21:29:28;;;;;;;0.80;0.67;;;;;;;19.30;64.11;97171.47;10557092;28;20031;-28
2022/10/29 21:34:28;;;;;;;1.00;0.77;;;;;;;19.30;64.11;97168.94;10564657;28;20100;-28
2022/10/29 21:39:28;;;;;;;0.63;0.60;;;;;;;19.40;66.30;97174.06;10563970;28;20027;-28
2022/10/29 21:44:29;;;;;;;0.73;0.70;;;;;;;19.46;67.81;97155.47;10565276;28;20363;-29
2022/10/29 21:49:29;;;;;;;0.60;0.50;;;;;;;19.52;65.54;97160.56;10562571;28;20498;-28
2022/10/29 21:54:29;;;;;;;0.63;0.50;;;;;;;19.35;64.13;97144.44;10559520;28;20521;-29
2022/10/29 21:59:30;;;;;;;1.27;0.70;;;;;;;19.32;64.27;97157.09;10563393;28;20305;-29
2022/10/29 22:04:30;;;;;;;1.20;0.80;;;;;;;19.27;63.99;97154.53;10565675;28;20028;-28
2022/10/29 22:09:31;;;;;;;0.70;0.50;;;;;;;19.27;64.17;97144.38;10564316;28;20031;-29
2022/10/29 22:14:31;;;;;;;0.87;0.80;;;;;;;19.32;64.06;97154.56;10555142;28;20107;-29
2022/10/29 22:19:31;;;;;;;0.97;0.60;;;;;;;19.30;64.15;97157.13;10560846;28;20082;-29
2022/10/29 22:24:32;;;;;;;0.73;0.70;;;;;;;19.32;64.06;97162.19;10561075;28;20031;-29
2022/10/29 22:29:32;;;;;;;1.10;0.53;;;;;;;19.30;63.98;97163.88;10557337;28;20039;-29
2022/10/29 22:34:33;;;;;;;0.90;0.67;;;;;;;19.35;66.21;97167.28;10560944;28;20282;-29
2022/10/29 22:39:33;;;;;;;1.10;0.90;;;;;;;19.48;67.05;97153.75;10561224;28;20040;-28
2022/10/29 22:44:34;;;;;;;1.10;0.97;;;;;;;19.54;65.75;97151.25;10562510;28;20040;-29
2022/10/29 22:49:34;;;;;;;0.50;0.50;;;;;;;19.43;64.16;97140.22;10559987;28;20409;-28
2022/10/29 22:54:34;;;;;;;1.60;0.40;;;;;;;19.33;64.12;97139.34;10557900;28;20432;-29
2022/10/29 22:59:35;;;;;;;3.00;0.97;;;;;;;19.34;64.07;97142.75;10561382;28;20381;-28
2022/10/29 23:04:35;;;;;;;1.43;0.70;;;;;;;19.33;64.30;97152.03;10560906;28;20032;-28
2022/10/29 23:09:35;;;;;;;1.33;0.63;;;;;;;19.32;64.25;97135.09;10561739;28;20530;-30
2022/10/29 23:14:36;;;;;;;0.53;0.53;;;;;;;19.32;64.16;97126.63;10551992;28;20342;-29
2022/10/29 23:19:36;;;;;;;0.70;0.70;;;;;;;19.30;64.39;97128.31;10562941;28;20039;-28
2022/10/29 23:24:36;;;;;;;1.47;0.90;;;;;;;19.31;64.07;97130.00;10562148;28;20381;-30
2022/10/29 23:29:37;;;;;;;1.80;0.70;;;;;;;19.32;64.28;97126.63;10569146;28;20114;-29
2022/10/29 23:34:37;;;;;;;1.30;1.00;;;;;;;19.47;67.49;97121.59;10566275;28;20406;-29